x

San Francisco - 18nm West Of San Francisco, Ca (46026) Wave Buoy

8:50pm - Sat 1st Aug 2015 All times are PDT. -7 hours from GMT.

  • Sig Wave height 2.6ft
  • Swell Direction
  • Peak Period 14s
  • Average Period 7s
  • Wind
    11mph, 13mph gusts
  • Sea Temp 62°f
  • Air Temp 63°f
  • Sea Pressure 1015.5mb
  • San Francisco - 18nm West Of San Francisco, Ca
  • San Francisco - 18nm West Of San Francisco, Ca

More Historic Weather Station data

Upgrade to MSW Pro to gain access to the past 30 days of data for over 8000 Wavebouys and Weather Stations around the globe.

Join Pro

Comparision Forecast

View Surf forecast
   
Sat 08/01 8:50pm 2.5ft 14s 7s 11 13 mph 1015.5mb 62f 63f
7:50pm 2.5ft 8s 7s 9
mph
1015.1mb 63f 63f
6:50pm 2.5ft 13s 7s 7 9 mph 1015mb 63f 64f
5:50pm 2.5ft 14s 7s 7
mph
1015mb 63f 64f
4:50pm 2.5ft 14s 8s 4 7 mph 1015.2mb 63f 64f
3:50pm 2.5ft 15s 8s 4
mph
1015.5mb 64f 64f
2:50pm 2.5ft 13s 8s 4
mph
1015.9mb 62f 63f
1:50pm 2.5ft 15s 8s 4
mph
1016.4mb 61f 62f
12:50pm 2.5ft 14s 8s 7
mph
1016.8mb 61f 62f
11:50am 2.5ft 13s 9s 4
mph
1017.3mb 61f 63f
10:50am 2.5ft 14s 8s 4
mph
1017.5mb 61f 62f
9:50am 2.5ft 14s 8s  -  2 mph 1017.6mb 61f 62f
8:50am 2.5ft 14s 8s  -  mph 1017.6mb 61f 62f
7:50am 2.5ft 14s 8s  -  2 mph 1017.4mb 61f 61f
6:50am 2.5ft 16s 8s 2 4 mph 1017.1mb 60f 61f
5:50am 2.5ft 14s 8s 2 4 mph 1016.5mb 60f 61f
4:50am 3ft 14s 9s 7 9 mph 1016.3mb 60f 62f
3:50am 3ft 14s 9s 2 4 mph 1016.1mb 60f 62f
2:50am 2.5ft 15s 9s 4 7 mph 1015.8mb 61f 61f
1:50am 3ft 14s 8s 4
mph
1016mb 61f 62f
12:50am 2.5ft 14s 8s 4 7 mph 1016.3mb 61f 62f
Fri 07/31 11:50pm 2.5ft 14s 8s 4 9 mph 1016.4mb 60f 62f
10:50pm 2.5ft 16s 9s 7
mph
1016.4mb 60f 61f
9:50pm 2.5ft 14s 9s 4 7 mph 1016.6mb 60f 61f
8:50pm 3ft 14s 9s 7 9 mph 1016.6mb 60f 62f
7:50pm 2.5ft 16s 9s 4 9 mph 1016.4mb 60f 61f
6:50pm 3ft 15s 9s 2 4 mph 1016.1mb 60f 61f
5:50pm 2.5ft 14s 9s 2 4 mph 1016.3mb 60f 60f
4:50pm 3ft 14s 9s 4
mph
1016.6mb 60f 60f
3:50pm 3ft 17s 9s 4
mph
1017.3mb 60f 60f
2:50pm 3ft 15s 8s 4 7 mph 1017.7mb 59f 60f
1:50pm 3.5ft 14s 9s 7
mph
1017.4mb 59f 59f
12:50pm 3.5ft 15s 9s 4
mph
1017.8mb 59f 60f
11:50am 3ft 15s 9s 7
mph
1017.5mb 59f 59f
10:50am 3.5ft 15s 9s 7
mph
1017.5mb 59f 60f
9:50am 3.5ft 14s 9s 4
mph
1017.8mb 59f 60f
8:50am 3ft 15s 9s 4 7 mph 1018.2mb 59f 59f
7:50am 2.5ft 14s 8s 4 7 mph 1017.8mb 59f 59f
6:50am 3ft 15s 9s 4 7 mph 1017.4mb 60f 59f
5:50am 3.5ft 15s 9s 7 9 mph 1017mb 59f 59f
4:50am 3ft 15s 9s 7
mph
1016.9mb 59f 59f
3:50am 3ft 15s 8s 7
mph
1016.8mb 60f 59f
2:50am 3ft 15s 9s 7 9 mph 1016.9mb 60f 60f
1:50am 3.5ft 15s 9s 7
mph
1017.1mb 60f 60f
12:50am 3ft 15s 8s 7 9 mph 1017.3mb 60f 60f
Thu 07/30 11:50pm 3.5ft 15s 8s 9 11 mph 1017.1mb 60f 60f
10:50pm 3.5ft 15s 9s 9 11 mph 1017.4mb 60f 60f
9:50pm 3.5ft 15s 9s 9 11 mph 1017.4mb 60f 60f
8:50pm 3.5ft 15s 10s 9 11 mph 1016.8mb 58f 60f
7:50pm 3ft 15s 8s 9 11 mph 1016.7mb 59f 61f
6:50pm 3.5ft 15s 9s 9 11 mph 1016.5mb 59f 61f
5:50pm 3.5ft 15s 9s 9 11 mph 1016.8mb 60f 61f
4:50pm 3.5ft 15s 9s 9
mph
1016.9mb 60f 62f
10:50am 3.5ft 15s 8s 2
mph
1018.4mb 58f 60f
9:50am 3.5ft 15s 8s 2 4 mph 1018.2mb 58f 60f
8:50am 3.5ft 15s 8s 4
mph
1017.8mb 58f 59f
7:50am 3.5ft 15s 9s 4
mph
1017.5mb 58f 59f
6:50am 3.5ft 15s 8s 4 7 mph 1016.8mb 58f 59f
5:50am 3.5ft 16s 8s 7
mph
1016.4mb 58f 59f
4:50am 3.5ft 15s 8s 4
mph
1015.8mb 58f 59f
3:50am 3.5ft 16s 8s 4
mph
1015.8mb 58f 59f
2:50am 3.5ft 15s 8s 4 7 mph 1015.8mb 57f 59f
1:50am 3.5ft 15s 8s 7 9 mph 1015.6mb 57f 59f
12:50am 4.5ft 15s 9s 7 9 mph 1015.7mb 58f 59f
Wed 07/29 11:50pm 4ft 15s 8s 7 9 mph 1015.5mb 58f 59f
10:50pm 4ft 15s 8s 4 7 mph 1015.3mb 58f 59f
9:50pm 4ft 16s 8s 7
mph
1014.8mb 58f 59f
8:50pm 4ft 16s 8s 4 9 mph 1014.4mb 58f 60f
7:50pm 3.5ft 15s 7s 7 9 mph 1014.3mb 58f 60f
6:50pm 4ft 16s 8s 7
mph
1014.3mb 58f 59f
5:50pm 4ft 15s 7s 9 11 mph 1014.2mb 59f 59f
4:50pm 4.5ft 16s 8s 7 11 mph 1014.3mb 59f 60f
3:50pm 4.5ft 16s 7s 7 9 mph 1014.4mb 59f 60f
2:50pm 4ft 9s 6s 9 11 mph 1014.6mb 59f 60f
1:50pm 4.5ft 16s 7s 7 9 mph 1014.6mb 59f 59f
12:50pm 4.5ft 16s 7s 9 11 mph 1014.6mb 59f 59f
11:50am 5ft 16s 7s 11
mph
1014.6mb 58f 58f
10:50am 4.5ft 16s 7s 11 16 mph 1014.6mb 58f 58f
9:50am 4.5ft 16s 8s 13 18 mph 1014mb 59f 58f
8:50am 4ft 16s 7s 11 13 mph 1013.9mb 59f 58f
7:50am 4.5ft 16s 7s 7 11 mph 1013.5mb 59f 57f
6:50am 4ft 16s 7s 7 9 mph 1012.9mb 59f 58f
5:50am 3.5ft 16s 7s 9 11 mph 1012.6mb 60f 58f